createdAt,value
2019-05-13T00:01:15.417Z,7.87
2019-05-13T00:03:44.513Z,7.83
2019-05-13T00:06:13.688Z,7.82
2019-05-13T00:08:44.038Z,7.87
2019-05-13T00:11:14.595Z,7.83
2019-05-13T00:13:44.402Z,7.85
2019-05-13T00:16:14.121Z,7.85
2019-05-13T00:18:44.441Z,7.87
2019-05-13T00:21:14.089Z,7.88
2019-05-13T00:23:44.234Z,7.90
2019-05-13T00:26:14.069Z,7.82
2019-05-13T00:28:44.344Z,7.87
2019-05-13T00:31:13.880Z,7.87
2019-05-13T00:33:44.465Z,7.87
2019-05-13T00:36:14.207Z,7.91
2019-05-13T00:38:44.055Z,7.94
2019-05-13T00:41:14.208Z,7.94
2019-05-13T00:43:44.398Z,7.95
2019-05-13T00:46:14.179Z,7.97
2019-05-13T00:48:43.961Z,7.99
2019-05-13T00:51:14.094Z,7.94
2019-05-13T00:53:44.205Z,7.96
2019-05-13T00:56:13.465Z,7.97
2019-05-13T00:58:43.755Z,8.01
2019-05-13T01:01:13.984Z,7.98
2019-05-13T01:03:44.161Z,7.96
2019-05-13T01:06:13.527Z,7.95
2019-05-13T01:08:44.270Z,8.00
2019-05-13T01:11:13.579Z,8.03
2019-05-13T01:13:43.378Z,7.93
2019-05-13T01:16:14.039Z,7.96
2019-05-13T01:18:43.360Z,7.98
2019-05-13T01:21:13.301Z,8.01
2019-05-13T01:23:43.861Z,8.01
2019-05-13T01:26:14.165Z,8.06
2019-05-13T01:28:43.678Z,7.96
2019-05-13T01:31:13.326Z,7.91
2019-05-13T01:33:44.474Z,7.84
2019-05-13T01:36:13.578Z,7.86
2019-05-13T01:38:43.631Z,7.79
2019-05-13T01:41:13.637Z,7.83
2019-05-13T01:43:44.120Z,7.76
2019-05-13T01:46:13.544Z,7.68
2019-05-13T01:48:43.751Z,7.69
2019-05-13T01:51:13.679Z,7.49
2019-05-13T01:53:44.051Z,7.58
2019-05-13T01:56:18.323Z,7.47
2019-05-13T01:58:47.439Z,7.51
2019-05-13T02:01:16.579Z,7.58
2019-05-13T02:03:45.693Z,7.59
2019-05-13T02:06:14.854Z,7.57
2019-05-13T02:08:44.090Z,7.46
2019-05-13T02:11:13.393Z,7.47
2019-05-13T02:13:44.605Z,7.50
2019-05-13T02:16:14.520Z,7.55
2019-05-13T02:18:44.436Z,7.60
2019-05-13T02:21:13.999Z,7.59
2019-05-13T02:23:44.321Z,7.65
2019-05-13T02:26:13.694Z,7.70
2019-05-13T02:28:43.613Z,7.69
2019-05-13T02:31:18.856Z,7.60
2019-05-13T02:33:43.806Z,7.64
2019-05-13T02:36:13.587Z,7.53
2019-05-13T02:38:43.031Z,7.43
2019-05-13T02:41:13.379Z,7.41
2019-05-13T02:43:45.196Z,7.50
2019-05-13T02:46:13.696Z,7.47
2019-05-13T02:48:42.799Z,7.48
2019-05-13T02:51:12.518Z,7.53
2019-05-13T02:53:43.715Z,7.57
2019-05-13T02:56:12.574Z,7.52
2019-05-13T02:58:42.760Z,7.59
2019-05-13T03:01:12.722Z,7.53
2019-05-13T03:03:44.444Z,7.50
2019-05-13T03:06:13.440Z,7.46
2019-05-13T03:08:49.515Z,7.44
2019-05-13T03:11:13.545Z,7.50
2019-05-13T03:13:42.743Z,7.52
2019-05-13T03:16:24.039Z,7.56
2019-05-13T03:18:53.165Z,7.62
2019-05-13T03:21:23.406Z,7.67
2019-05-13T03:23:52.827Z,7.70
2019-05-13T03:26:23.442Z,7.70
2019-05-13T03:28:52.867Z,7.65
2019-05-13T03:31:26.500Z,7.52
2019-05-13T03:33:55.791Z,7.49
2019-05-13T03:36:25.810Z,7.41
2019-05-13T03:39:04.626Z,7.51
2019-05-13T03:41:32.748Z,7.53
2019-05-13T03:44:03.640Z,7.42
2019-05-13T03:46:35.689Z,7.49
2019-05-13T03:49:06.665Z,7.54
2019-05-13T03:51:35.796Z,7.59
2019-05-13T03:54:04.920Z,7.65
2019-05-13T03:56:34.380Z,7.69
2019-05-13T03:59:03.514Z,7.74
2019-05-13T04:01:32.876Z,7.79
2019-05-13T04:04:03.285Z,7.80
2019-05-13T04:06:32.857Z,7.84
2019-05-13T04:09:20.800Z,7.86
2019-05-13T04:11:33.166Z,7.93
2019-05-13T04:14:03.294Z,7.93
2019-05-13T04:16:32.722Z,7.94
2019-05-13T04:19:02.695Z,7.92
2019-05-13T04:21:33.752Z,7.89
2019-05-13T04:24:04.253Z,7.90
2019-05-13T04:26:33.499Z,7.91
2019-05-13T04:29:03.304Z,7.94
2019-05-13T04:31:33.508Z,7.94
2019-05-13T04:34:03.219Z,7.95
2019-05-13T04:36:32.336Z,7.97
2019-05-13T04:39:03.316Z,7.97
2019-05-13T04:41:33.396Z,7.97
2019-05-13T04:44:02.933Z,7.96
2019-05-13T04:46:32.943Z,8.00
2019-05-13T04:49:02.478Z,7.96
2019-05-13T04:51:33.070Z,7.89
2019-05-13T04:54:02.994Z,7.90
2019-05-13T04:56:33.118Z,7.94
2019-05-13T04:59:03.107Z,7.95
2019-05-13T05:02:05.048Z,8.00
2019-05-13T05:04:52.650Z,8.04
2019-05-13T05:08:02.922Z,8.00
2019-05-13T05:11:14.463Z,8.05
2019-05-13T05:14:27.301Z,8.04
2019-05-13T05:17:32.840Z,8.07
2019-05-13T05:20:23.313Z,8.08
2019-05-13T05:23:39.345Z,8.12
2019-05-13T05:26:42.012Z,8.19
2019-05-13T05:29:58.825Z,8.24
2019-05-13T05:33:02.475Z,8.33
2019-05-13T05:35:55.466Z,8.39
2019-05-13T05:38:56.558Z,8.44
2019-05-13T05:41:28.951Z,8.48
2019-05-13T05:43:58.917Z,8.54
2019-05-13T05:46:32.388Z,8.58
2019-05-13T05:49:07.010Z,8.67
2019-05-13T05:51:37.050Z,8.77
2019-05-13T05:54:11.166Z,8.79
2019-05-13T05:56:41.510Z,8.89
2019-05-13T05:59:12.509Z,8.95
2019-05-13T06:01:45.262Z,9.09
2019-05-13T06:04:14.434Z,9.16
2019-05-13T06:06:44.049Z,9.21
2019-05-13T06:09:13.211Z,9.31
2019-05-13T06:11:42.663Z,9.16
2019-05-13T06:14:11.863Z,9.28
2019-05-13T06:16:42.592Z,9.33
2019-05-13T06:19:12.197Z,9.38
2019-05-13T06:21:42.133Z,9.47
2019-05-13T06:24:11.806Z,9.54
2019-05-13T06:26:42.055Z,9.63
2019-05-13T06:29:11.798Z,9.65
2019-05-13T06:31:41.940Z,9.61
2019-05-13T06:34:12.651Z,9.57
2019-05-13T06:36:42.035Z,9.58
2019-05-13T06:39:12.356Z,9.63
2019-05-13T06:41:41.812Z,9.58
2019-05-13T06:44:12.213Z,9.56
2019-05-13T06:46:42.315Z,9.62
2019-05-13T06:49:12.228Z,9.53
2019-05-13T06:51:41.932Z,9.59
2019-05-13T06:54:11.484Z,9.66
2019-05-13T06:56:42.843Z,9.70
2019-05-13T06:59:11.963Z,9.74
2019-05-13T07:01:42.408Z,9.75
2019-05-13T07:04:11.891Z,9.81
2019-05-13T07:06:41.856Z,9.93
2019-05-13T07:09:12.017Z,9.97
2019-05-13T07:11:41.699Z,10.06
2019-05-13T07:14:12.752Z,10.12
2019-05-13T07:16:42.253Z,10.21
2019-05-13T07:19:11.836Z,10.27
2019-05-13T07:21:41.880Z,10.32
2019-05-13T07:24:12.623Z,10.35
2019-05-13T07:26:42.173Z,10.41
2019-05-13T07:29:13.207Z,10.37
2019-05-13T07:31:42.347Z,10.42
2019-05-13T07:34:11.892Z,10.46
2019-05-13T07:36:42.151Z,10.49
2019-05-13T07:39:12.027Z,10.52
2019-05-13T07:41:43.099Z,10.56
2019-05-13T07:44:12.174Z,10.56
2019-05-13T07:46:42.749Z,10.61
2019-05-13T07:49:12.160Z,10.69
2019-05-13T07:51:42.002Z,10.78
2019-05-13T07:54:11.582Z,10.92
2019-05-13T07:56:42.611Z,11.11
2019-05-13T07:59:12.461Z,11.11
2019-05-13T08:01:41.950Z,11.12
2019-05-13T08:04:21.822Z,11.16
2019-05-13T08:06:42.045Z,11.14
2019-05-13T08:09:12.799Z,11.17
2019-05-13T08:12:00.506Z,11.16
2019-05-13T08:14:13.030Z,11.22
2019-05-13T08:16:42.786Z,11.27
2019-05-13T08:19:12.451Z,11.23
2019-05-13T08:21:41.954Z,11.22
2019-05-13T08:24:11.961Z,11.22
2019-05-13T08:26:45.103Z,11.14
2019-05-13T08:29:12.127Z,11.21
2019-05-13T08:31:41.381Z,11.22
2019-05-13T08:34:11.745Z,11.31
2019-05-13T08:36:42.599Z,11.38
2019-05-13T08:39:12.779Z,11.47
2019-05-13T08:41:42.493Z,11.53
2019-05-13T08:44:12.495Z,11.60
2019-05-13T08:46:41.822Z,11.67
2019-05-13T08:49:11.953Z,11.78
2019-05-13T08:51:42.099Z,11.85
2019-05-13T08:54:11.745Z,11.82
2019-05-13T08:56:41.622Z,11.83
2019-05-13T08:59:11.605Z,11.92
2019-05-13T09:01:42.706Z,11.92
2019-05-13T09:04:12.075Z,11.98
2019-05-13T09:06:41.985Z,11.98
2019-05-13T09:09:11.689Z,11.98
2019-05-13T09:11:42.148Z,11.95
2019-05-13T09:14:11.621Z,11.86
2019-05-13T09:16:41.905Z,11.82
2019-05-13T09:19:15.916Z,11.79
2019-05-13T09:21:42.418Z,11.80
2019-05-13T09:24:23.894Z,11.68
2019-05-13T09:26:42.621Z,11.72
2019-05-13T09:29:12.093Z,11.72
2019-05-13T09:31:41.694Z,11.72
2019-05-13T09:34:12.193Z,11.82
2019-05-13T09:36:41.821Z,11.92
2019-05-13T09:39:12.573Z,12.00
2019-05-13T09:41:44.623Z,12.03
2019-05-13T09:44:13.057Z,12.13
2019-05-13T09:46:42.666Z,12.24
2019-05-13T09:49:19.407Z,12.28
2019-05-13T09:51:42.832Z,12.27
2019-05-13T09:54:11.960Z,12.27
2019-05-13T09:56:41.450Z,12.25
2019-05-13T09:59:11.701Z,12.20
2019-05-13T10:01:42.559Z,12.16
2019-05-13T10:04:12.083Z,12.13
2019-05-13T10:06:42.231Z,12.08
2019-05-13T10:09:12.513Z,12.06
2019-05-13T10:11:41.961Z,12.07
2019-05-13T10:14:11.755Z,12.21
2019-05-13T10:16:42.542Z,12.36
2019-05-13T10:19:12.873Z,12.54
2019-05-13T10:21:42.400Z,12.65
2019-05-13T10:24:12.594Z,12.74
2019-05-13T10:26:43.280Z,12.75
2019-05-13T10:29:12.768Z,12.75
2019-05-13T10:31:42.459Z,12.77
2019-05-13T10:34:14.094Z,12.81
2019-05-13T10:36:42.520Z,12.83
2019-05-13T10:39:12.205Z,12.85
2019-05-13T10:41:42.274Z,12.91
2019-05-13T10:44:12.277Z,12.91
2019-05-13T10:46:42.629Z,12.80
2019-05-13T10:49:12.416Z,12.74
2019-05-13T10:51:42.077Z,12.74
2019-05-13T10:54:11.204Z,12.76
2019-05-13T10:56:43.136Z,12.81
2019-05-13T10:59:43.406Z,12.90
2019-05-13T11:02:13.368Z,12.93
2019-05-13T11:04:42.706Z,13.08
2019-05-13T11:07:12.222Z,13.39
2019-05-13T11:09:41.903Z,13.70
2019-05-13T11:12:12.443Z,13.96
2019-05-13T11:14:42.318Z,14.12
2019-05-13T11:17:13.094Z,14.34
2019-05-13T11:19:42.561Z,14.36
2019-05-13T11:22:12.423Z,14.28
2019-05-13T11:24:43.197Z,14.18
2019-05-13T11:27:12.613Z,14.06
2019-05-13T11:29:42.058Z,14.06
2019-05-13T11:32:13.182Z,13.93
2019-05-13T11:34:42.204Z,13.86
2019-05-13T11:37:12.367Z,13.82
2019-05-13T11:39:42.854Z,13.70
2019-05-13T11:42:13.632Z,13.86
2019-05-13T11:44:43.205Z,14.11
2019-05-13T11:47:12.814Z,14.32
2019-05-13T11:49:42.829Z,14.43
2019-05-13T11:52:12.246Z,14.47
2019-05-13T11:54:42.455Z,14.51
2019-05-13T11:57:12.675Z,14.42
2019-05-13T11:59:42.972Z,14.47
2019-05-13T12:02:13.620Z,14.48
2019-05-13T12:04:43.984Z,14.44
2019-05-13T12:07:14.205Z,14.33
2019-05-13T12:09:43.337Z,14.25
2019-05-13T12:12:13.412Z,14.15
2019-05-13T12:15:05.024Z,14.16
2019-05-13T12:17:14.415Z,14.34
2019-05-13T12:19:43.769Z,14.43
2019-05-13T12:22:13.266Z,14.48
2019-05-13T12:24:42.554Z,14.43
2019-05-13T12:27:11.870Z,14.37
2019-05-13T12:29:42.946Z,14.22
2019-05-13T12:32:13.701Z,14.14
2019-05-13T12:34:45.764Z,14.22
2019-05-13T12:37:14.200Z,14.28
2019-05-13T12:39:44.069Z,14.40
2019-05-13T12:42:13.313Z,14.47
2019-05-13T12:45:00.222Z,14.43
2019-05-13T12:47:13.361Z,14.43
2019-05-13T12:49:43.776Z,14.21
2019-05-13T12:52:14.149Z,13.88
2019-05-13T12:54:44.012Z,13.75
2019-05-13T12:57:16.248Z,13.93
2019-05-13T12:59:45.098Z,14.13
2019-05-13T13:02:14.256Z,14.53
2019-05-13T13:05:07.955Z,14.68
2019-05-13T13:07:14.379Z,14.76
2019-05-13T13:09:43.518Z,14.74
2019-05-13T13:12:12.897Z,14.65
2019-05-13T13:14:44.180Z,14.57
2019-05-13T13:17:13.133Z,14.60
2019-05-13T13:19:42.388Z,14.60
2019-05-13T13:24:50.726Z,14.45
2019-05-13T13:27:19.351Z,14.56
2019-05-13T13:29:44.588Z,14.77
2019-05-13T13:32:13.834Z,14.99
2019-05-13T13:34:44.110Z,15.11
2019-05-13T13:37:14.210Z,15.23
2019-05-13T13:39:43.725Z,15.29
2019-05-13T13:42:13.330Z,15.35
2019-05-13T13:44:43.033Z,15.43
2019-05-13T13:47:14.691Z,15.25
2019-05-13T13:49:44.190Z,15.22
2019-05-13T13:52:16.193Z,15.13
2019-05-13T13:54:44.918Z,15.25
2019-05-13T13:57:14.138Z,15.51
2019-05-13T14:00:14.257Z,15.81
2019-05-13T14:02:14.066Z,15.43
2019-05-13T14:04:43.398Z,15.48
2019-05-13T14:07:13.511Z,14.58
2019-05-13T14:07:22.954Z,15.45
2019-05-13T14:09:43.800Z,15.36
2019-05-13T14:12:12.948Z,15.31
2019-05-13T14:14:42.132Z,15.24
2019-05-13T14:17:11.550Z,15.12
2019-05-13T14:19:42.205Z,14.98
2019-05-13T14:22:12.528Z,15.13
2019-05-13T14:24:42.656Z,15.22
2019-05-13T14:27:12.293Z,15.33
2019-05-13T14:29:48.717Z,15.47
2019-05-13T14:32:12.452Z,15.68
2019-05-13T14:34:42.156Z,15.92
2019-05-13T14:37:11.837Z,16.21
2019-05-13T14:39:41.432Z,16.09
2019-05-13T14:42:11.591Z,16.12
2019-05-13T14:44:41.200Z,16.15
2019-05-13T14:47:12.479Z,16.28
2019-05-13T14:49:42.400Z,16.44
2019-05-13T14:52:12.442Z,16.82
2019-05-13T14:54:42.091Z,17.20
2019-05-13T14:57:14.662Z,17.67
2019-05-13T14:59:42.743Z,18.07
2019-05-13T15:02:12.141Z,18.39
2019-05-13T15:04:42.214Z,18.47
2019-05-13T15:07:12.332Z,18.37
2019-05-13T15:09:42.241Z,17.82
2019-05-13T15:12:11.498Z,17.64
2019-05-13T15:14:42.730Z,17.31
2019-05-13T15:17:12.817Z,17.05
2019-05-13T15:19:42.321Z,17.15
2019-05-13T15:22:12.559Z,17.64
2019-05-13T15:24:42.474Z,18.36
2019-05-13T15:27:12.214Z,19.50
2019-05-13T15:29:41.755Z,20.58
2019-05-13T15:32:11.036Z,21.65
2019-05-13T15:34:42.044Z,22.00
2019-05-13T15:37:11.399Z,21.79
2019-05-13T15:39:42.667Z,21.45
2019-05-13T15:42:12.083Z,20.73
2019-05-13T15:44:41.392Z,19.91
2019-05-13T15:47:22.754Z,19.10
2019-05-13T15:49:41.396Z,18.90
2019-05-13T15:52:11.773Z,18.94
2019-05-13T15:54:41.639Z,19.05
2019-05-13T15:57:11.910Z,19.93
2019-05-13T15:59:41.572Z,21.20
2019-05-13T16:02:11.681Z,22.08
2019-05-13T16:04:50.032Z,22.13
2019-05-13T16:07:12.388Z,21.60
2019-05-13T16:09:42.191Z,20.66
2019-05-13T16:12:14.456Z,19.72
2019-05-13T16:14:43.624Z,19.06
2019-05-13T16:17:13.005Z,18.52
2019-05-13T16:19:42.226Z,18.17
2019-05-13T16:22:11.959Z,17.98
2019-05-13T16:24:41.778Z,17.69
2019-05-13T16:27:11.829Z,16.63
2019-05-13T16:29:42.211Z,16.72
2019-05-13T16:32:12.106Z,16.90
2019-05-13T16:34:42.473Z,16.86
2019-05-13T16:37:11.948Z,16.86
2019-05-13T16:39:41.589Z,16.73
2019-05-13T16:42:11.651Z,16.31
2019-05-13T16:44:42.984Z,16.23
2019-05-13T16:47:12.430Z,16.23
2019-05-13T16:49:41.611Z,16.15
2019-05-13T16:52:11.742Z,16.06
2019-05-13T16:54:42.458Z,15.96
2019-05-13T16:57:12.019Z,15.86
2019-05-13T16:59:43.084Z,15.91
2019-05-13T17:02:12.789Z,15.86
2019-05-13T17:04:42.049Z,15.90
2019-05-13T17:07:13.850Z,15.97
2019-05-13T17:09:42.228Z,15.95
2019-05-13T17:12:13.840Z,15.93
2019-05-13T17:14:42.243Z,15.88
2019-05-13T17:17:11.913Z,15.83
2019-05-13T17:19:42.218Z,15.71
2019-05-13T17:22:11.572Z,15.66
2019-05-13T17:24:42.682Z,15.61
2019-05-13T17:27:12.204Z,15.55
2019-05-13T17:29:41.597Z,15.47
2019-05-13T17:32:11.619Z,15.43
2019-05-13T17:34:43.612Z,15.34
2019-05-13T17:37:11.930Z,15.30
2019-05-13T17:39:41.633Z,15.22
2019-05-13T17:42:12.149Z,15.16
2019-05-13T17:44:45.905Z,15.10
2019-05-13T17:47:12.545Z,15.08
2019-05-13T17:49:41.933Z,15.03
2019-05-13T17:52:11.498Z,15.04
2019-05-13T17:54:42.850Z,14.99
2019-05-13T17:57:12.493Z,14.97
2019-05-13T17:59:41.930Z,14.91
2019-05-13T18:02:11.824Z,14.85
2019-05-13T18:04:41.615Z,14.75
2019-05-13T18:07:12.251Z,14.72
2019-05-13T18:09:42.311Z,14.55
2019-05-13T18:12:11.879Z,14.48
2019-05-13T18:14:41.354Z,14.44
2019-05-13T18:17:12.562Z,14.43
2019-05-13T18:19:42.253Z,14.43
2019-05-13T18:22:11.652Z,14.38
2019-05-13T18:24:40.853Z,14.37
2019-05-13T18:27:12.226Z,14.35
2019-05-13T18:29:42.029Z,14.32
2019-05-13T18:32:12.318Z,14.23
2019-05-13T18:34:41.850Z,14.17
2019-05-13T18:37:11.967Z,14.13
2019-05-13T18:39:41.742Z,14.09
2019-05-13T18:42:11.647Z,14.02
2019-05-13T18:44:42.119Z,13.95
2019-05-13T18:47:12.227Z,13.91
2019-05-13T18:49:42.308Z,13.86
2019-05-13T18:52:12.234Z,13.79
2019-05-13T18:54:42.213Z,13.76
2019-05-13T18:57:12.240Z,13.72
2019-05-13T18:59:41.802Z,13.64
2019-05-13T19:02:12.249Z,13.58
2019-05-13T19:04:41.849Z,13.54
2019-05-13T19:07:11.347Z,13.48
2019-05-13T19:09:41.771Z,13.42
2019-05-13T19:12:11.744Z,13.35
2019-05-13T19:14:41.749Z,13.24
2019-05-13T19:17:12.357Z,13.18
2019-05-13T19:19:42.285Z,13.10
2019-05-13T19:22:12.281Z,13.03
2019-05-13T19:24:41.865Z,12.98
2019-05-13T19:27:12.042Z,12.94
2019-05-13T19:29:42.566Z,12.91
2019-05-13T19:32:12.563Z,12.87
2019-05-13T19:34:43.417Z,12.83
2019-05-13T19:37:12.882Z,12.79
2019-05-13T19:39:42.496Z,12.74
2019-05-13T19:42:13.059Z,12.72
2019-05-13T19:44:42.437Z,12.64
2019-05-13T19:47:12.538Z,12.54
2019-05-13T19:49:46.124Z,12.49
2019-05-13T19:52:13.048Z,12.45
2019-05-13T19:54:42.299Z,12.37
2019-05-13T19:57:12.098Z,12.30
2019-05-13T19:59:42.700Z,12.26
2019-05-13T20:02:12.411Z,12.16
2019-05-13T20:04:41.919Z,12.09
2019-05-13T20:07:11.974Z,12.03
2019-05-13T20:09:42.521Z,11.97
2019-05-13T20:12:15.540Z,11.93
2019-05-13T20:14:43.571Z,11.89
2019-05-13T20:17:12.796Z,11.86
2019-05-13T20:19:50.329Z,11.86
2019-05-13T20:22:15.862Z,11.79
2019-05-13T20:24:45.284Z,11.78
2019-05-13T20:27:14.686Z,11.77
2019-05-13T20:29:44.104Z,11.77
2019-05-13T20:32:13.522Z,11.73
2019-05-13T20:34:45.410Z,11.64
2019-05-13T20:37:14.983Z,11.58
2019-05-13T20:39:44.129Z,11.57
2019-05-13T20:42:13.345Z,11.48
2019-05-13T20:44:42.481Z,11.48
2019-05-13T20:47:11.617Z,11.46
2019-05-13T20:49:41.799Z,11.37
2019-05-13T20:52:15.103Z,11.26
2019-05-13T20:54:42.033Z,11.33
2019-05-13T20:57:11.237Z,11.34
2019-05-13T20:59:41.359Z,11.34
2019-05-13T21:02:12.402Z,11.38
2019-05-13T21:04:41.704Z,11.36
2019-05-13T21:07:10.876Z,11.37
2019-05-13T21:09:42.153Z,11.43
2019-05-13T21:12:12.021Z,11.49
2019-05-13T21:14:42.899Z,11.49
2019-05-13T21:17:12.407Z,11.54
2019-05-13T21:19:42.962Z,11.57
2019-05-13T21:22:12.250Z,11.57
2019-05-13T21:24:41.447Z,11.59
2019-05-13T21:27:11.917Z,11.42
2019-05-13T21:29:41.459Z,11.41
2019-05-13T21:32:11.813Z,11.41
2019-05-13T21:34:41.115Z,11.43
2019-05-13T21:37:11.518Z,11.39
2019-05-13T21:39:41.373Z,11.38
2019-05-13T21:42:11.468Z,11.27
2019-05-13T21:44:42.022Z,11.34
2019-05-13T21:47:11.461Z,11.15
2019-05-13T21:49:42.349Z,11.22
2019-05-13T21:52:12.235Z,11.26
2019-05-13T21:54:42.198Z,11.24
2019-05-13T21:57:11.529Z,11.27
2019-05-13T21:59:41.385Z,11.21
2019-05-13T22:02:10.768Z,11.21
2019-05-13T22:04:41.267Z,11.21
2019-05-13T22:07:12.170Z,11.18
2019-05-13T22:09:42.270Z,11.20
2019-05-13T22:12:11.735Z,11.19
2019-05-13T22:14:41.310Z,11.14
2019-05-13T22:17:12.343Z,11.13
2019-05-13T22:19:41.985Z,11.14
2019-05-13T22:22:11.681Z,11.13
2019-05-13T22:24:41.829Z,11.13
2019-05-13T22:27:13.200Z,11.11
2019-05-13T22:29:42.067Z,11.00
2019-05-13T22:32:11.431Z,11.02
2019-05-13T22:34:41.960Z,11.00
2019-05-13T22:37:11.672Z,10.97
2019-05-13T22:39:42.188Z,10.92
2019-05-13T22:42:12.462Z,10.88
2019-05-13T22:44:41.981Z,10.88
2019-05-13T22:47:13.308Z,10.80
2019-05-13T22:49:42.177Z,10.79
2019-05-13T22:52:11.500Z,10.74
2019-05-13T22:54:41.279Z,10.74
2019-05-13T22:57:12.012Z,10.72
2019-05-13T22:59:41.666Z,10.64
2019-05-13T23:02:11.007Z,10.62
2019-05-13T23:04:41.888Z,10.51
2019-05-13T23:07:11.752Z,10.52
2019-05-13T23:09:41.683Z,10.44
2019-05-13T23:12:12.287Z,10.45
2019-05-13T23:14:41.635Z,10.43
2019-05-13T23:17:12.532Z,10.41
2019-05-13T23:19:41.795Z,10.37
2019-05-13T23:22:12.044Z,10.34
2019-05-13T23:24:41.791Z,10.29
2019-05-13T23:27:11.189Z,10.25
2019-05-13T23:29:41.225Z,10.20
2019-05-13T23:32:11.995Z,10.20
2019-05-13T23:34:42.333Z,10.11
2019-05-13T23:37:11.638Z,10.05
2019-05-13T23:39:41.677Z,9.99
2019-05-13T23:42:12.120Z,9.89
2019-05-13T23:44:41.754Z,9.86
2019-05-13T23:47:11.566Z,9.80
2019-05-13T23:49:42.253Z,9.72
2019-05-13T23:52:11.969Z,9.69
2019-05-13T23:54:42.496Z,9.64
2019-05-13T23:57:12.064Z,9.55
2019-05-13T23:59:41.897Z,9.47
